sensor_id;sensor_type;location;lat;lon;timestamp;P1;durP1;ratioP1;P2;durP2;ratioP2
59271;SDS011;45043;51.068;7.026;2023-07-29T00:01:40;4.53;;;1.87;;
59271;SDS011;45043;51.068;7.026;2023-07-29T00:04:42;3.27;;;1.93;;
59271;SDS011;45043;51.068;7.026;2023-07-29T00:07:44;2.27;;;2.13;;
59271;SDS011;45043;51.068;7.026;2023-07-29T00:10:46;3.33;;;1.93;;
59271;SDS011;45043;51.068;7.026;2023-07-29T00:13:47;2.33;;;2.10;;
59271;SDS011;45043;51.068;7.026;2023-07-29T00:16:50;2.00;;;1.80;;
59271;SDS011;45043;51.068;7.026;2023-07-29T00:19:51;2.67;;;2.33;;
59271;SDS011;45043;51.068;7.026;2023-07-29T00:22:53;2.93;;;2.00;;
59271;SDS011;45043;51.068;7.026;2023-07-29T00:25:54;3.67;;;2.00;;
59271;SDS011;45043;51.068;7.026;2023-07-29T00:29:00;2.07;;;1.97;;
59271;SDS011;45043;51.068;7.026;2023-07-29T00:32:02;2.17;;;2.00;;
59271;SDS011;45043;51.068;7.026;2023-07-29T00:35:03;2.40;;;2.20;;
59271;SDS011;45043;51.068;7.026;2023-07-29T00:38:05;2.10;;;2.00;;
59271;SDS011;45043;51.068;7.026;2023-07-29T00:41:06;3.10;;;2.17;;
59271;SDS011;45043;51.068;7.026;2023-07-29T00:44:08;2.97;;;2.20;;
59271;SDS011;45043;51.068;7.026;2023-07-29T00:47:09;2.93;;;2.27;;
59271;SDS011;45043;51.068;7.026;2023-07-29T00:50:13;2.23;;;1.80;;
59271;SDS011;45043;51.068;7.026;2023-07-29T00:53:15;2.17;;;1.97;;
59271;SDS011;45043;51.068;7.026;2023-07-29T00:56:17;2.40;;;2.20;;
59271;SDS011;45043;51.068;7.026;2023-07-29T00:59:18;4.17;;;2.33;;
59271;SDS011;45043;51.068;7.026;2023-07-29T01:02:20;2.60;;;2.20;;
59271;SDS011;45043;51.068;7.026;2023-07-29T01:05:21;2.63;;;2.43;;
59271;SDS011;45043;51.068;7.026;2023-07-29T01:08:25;2.37;;;2.20;;
59271;SDS011;45043;51.068;7.026;2023-07-29T01:18:28;4.10;;;2.10;;
59271;SDS011;45043;51.068;7.026;2023-07-29T01:21:33;2.53;;;2.33;;
59271;SDS011;45043;51.068;7.026;2023-07-29T01:24:37;5.90;;;2.30;;
59271;SDS011;45043;51.068;7.026;2023-07-29T01:27:37;2.60;;;2.40;;
59271;SDS011;45043;51.068;7.026;2023-07-29T01:30:42;2.70;;;2.50;;
59271;SDS011;45043;51.068;7.026;2023-07-29T01:34:28;2.50;;;2.30;;
59271;SDS011;45043;51.068;7.026;2023-07-29T01:37:27;2.50;;;2.30;;
59271;SDS011;45043;51.068;7.026;2023-07-29T01:40:34;3.00;;;2.30;;
59271;SDS011;45043;51.068;7.026;2023-07-29T01:43:35;2.60;;;2.40;;
59271;SDS011;45043;51.068;7.026;2023-07-29T01:46:43;3.90;;;2.13;;
59271;SDS011;45043;51.068;7.026;2023-07-29T01:49:46;2.50;;;2.30;;
59271;SDS011;45043;51.068;7.026;2023-07-29T01:52:48;4.87;;;2.60;;
59271;SDS011;45043;51.068;7.026;2023-07-29T01:55:49;2.77;;;2.30;;
59271;SDS011;45043;51.068;7.026;2023-07-29T01:58:50;3.40;;;2.40;;
59271;SDS011;45043;51.068;7.026;2023-07-29T02:01:51;4.50;;;2.50;;
59271;SDS011;45043;51.068;7.026;2023-07-29T02:04:51;3.90;;;2.50;;
59271;SDS011;45043;51.068;7.026;2023-07-29T02:07:52;2.70;;;2.50;;
59271;SDS011;45043;51.068;7.026;2023-07-29T02:10:53;3.13;;;2.40;;
59271;SDS011;45043;51.068;7.026;2023-07-29T02:13:54;3.00;;;2.50;;
59271;SDS011;45043;51.068;7.026;2023-07-29T02:16:56;2.70;;;2.50;;
59271;SDS011;45043;51.068;7.026;2023-07-29T02:19:57;2.53;;;2.33;;
59271;SDS011;45043;51.068;7.026;2023-07-29T02:22:57;3.00;;;2.40;;
59271;SDS011;45043;51.068;7.026;2023-07-29T02:25:58;3.67;;;2.43;;
59271;SDS011;45043;51.068;7.026;2023-07-29T02:28:59;3.17;;;2.87;;
59271;SDS011;45043;51.068;7.026;2023-07-29T02:32:00;6.20;;;2.70;;
59271;SDS011;45043;51.068;7.026;2023-07-29T02:35:01;3.40;;;2.93;;
59271;SDS011;45043;51.068;7.026;2023-07-29T02:38:02;3.10;;;2.70;;
59271;SDS011;45043;51.068;7.026;2023-07-29T02:41:03;6.13;;;2.73;;
59271;SDS011;45043;51.068;7.026;2023-07-29T02:44:04;2.87;;;2.50;;
59271;SDS011;45043;51.068;7.026;2023-07-29T02:47:05;3.43;;;3.07;;
59271;SDS011;45043;51.068;7.026;2023-07-29T02:50:06;4.00;;;3.17;;
59271;SDS011;45043;51.068;7.026;2023-07-29T02:53:06;3.20;;;2.90;;
59271;SDS011;45043;51.068;7.026;2023-07-29T02:56:08;5.63;;;3.33;;
59271;SDS011;45043;51.068;7.026;2023-07-29T02:59:09;4.67;;;3.20;;
59271;SDS011;45043;51.068;7.026;2023-07-29T03:02:10;5.53;;;4.03;;
59271;SDS011;45043;51.068;7.026;2023-07-29T03:05:11;4.13;;;3.70;;
59271;SDS011;45043;51.068;7.026;2023-07-29T03:08:12;4.67;;;4.30;;
59271;SDS011;45043;51.068;7.026;2023-07-29T03:11:14;4.67;;;4.13;;
59271;SDS011;45043;51.068;7.026;2023-07-29T03:14:16;4.63;;;4.13;;
59271;SDS011;45043;51.068;7.026;2023-07-29T03:17:17;6.70;;;3.63;;
59271;SDS011;45043;51.068;7.026;2023-07-29T03:20:17;4.20;;;3.43;;
59271;SDS011;45043;51.068;7.026;2023-07-29T03:23:18;3.77;;;3.40;;
59271;SDS011;45043;51.068;7.026;2023-07-29T03:26:24;3.87;;;3.57;;
59271;SDS011;45043;51.068;7.026;2023-07-29T03:29:25;3.80;;;3.50;;
59271;SDS011;45043;51.068;7.026;2023-07-29T03:32:26;4.20;;;3.87;;
59271;SDS011;45043;51.068;7.026;2023-07-29T03:35:26;4.70;;;3.57;;
59271;SDS011;45043;51.068;7.026;2023-07-29T03:38:27;5.40;;;3.30;;
59271;SDS011;45043;51.068;7.026;2023-07-29T03:41:27;4.03;;;3.63;;
59271;SDS011;45043;51.068;7.026;2023-07-29T03:44:28;3.63;;;3.33;;
59271;SDS011;45043;51.068;7.026;2023-07-29T03:47:29;3.97;;;3.33;;
59271;SDS011;45043;51.068;7.026;2023-07-29T03:50:33;4.00;;;3.30;;
59271;SDS011;45043;51.068;7.026;2023-07-29T03:53:35;4.47;;;3.20;;
59271;SDS011;45043;51.068;7.026;2023-07-29T03:56:36;4.20;;;3.30;;
59271;SDS011;45043;51.068;7.026;2023-07-29T03:59:37;4.00;;;3.40;;
59271;SDS011;45043;51.068;7.026;2023-07-29T04:02:37;4.93;;;3.70;;
59271;SDS011;45043;51.068;7.026;2023-07-29T04:05:38;3.80;;;3.40;;
59271;SDS011;45043;51.068;7.026;2023-07-29T04:08:39;3.83;;;3.43;;
59271;SDS011;45043;51.068;7.026;2023-07-29T04:11:41;4.10;;;3.70;;
59271;SDS011;45043;51.068;7.026;2023-07-29T04:14:42;4.03;;;3.67;;
59271;SDS011;45043;51.068;7.026;2023-07-29T04:17:42;4.10;;;3.80;;
59271;SDS011;45043;51.068;7.026;2023-07-29T04:20:43;4.97;;;3.90;;
59271;SDS011;45043;51.068;7.026;2023-07-29T04:23:43;4.93;;;4.07;;
59271;SDS011;45043;51.068;7.026;2023-07-29T04:26:44;4.10;;;3.80;;
59271;SDS011;45043;51.068;7.026;2023-07-29T04:29:44;5.47;;;4.20;;
59271;SDS011;45043;51.068;7.026;2023-07-29T04:32:45;4.10;;;3.80;;
59271;SDS011;45043;51.068;7.026;2023-07-29T04:35:48;3.80;;;3.50;;
59271;SDS011;45043;51.068;7.026;2023-07-29T04:38:48;3.87;;;3.57;;
59271;SDS011;45043;51.068;7.026;2023-07-29T04:41:49;5.17;;;3.57;;
59271;SDS011;45043;51.068;7.026;2023-07-29T04:44:49;4.83;;;3.73;;
59271;SDS011;45043;51.068;7.026;2023-07-29T04:47:50;5.43;;;3.90;;
59271;SDS011;45043;51.068;7.026;2023-07-29T04:50:50;2.90;;;2.60;;
59271;SDS011;45043;51.068;7.026;2023-07-29T04:53:51;3.37;;;3.07;;
59271;SDS011;45043;51.068;7.026;2023-07-29T04:56:51;6.27;;;3.03;;
59271;SDS011;45043;51.068;7.026;2023-07-29T04:59:52;3.20;;;2.70;;
59271;SDS011;45043;51.068;7.026;2023-07-29T05:02:52;3.77;;;2.77;;
59271;SDS011;45043;51.068;7.026;2023-07-29T05:05:52;2.77;;;2.50;;
59271;SDS011;45043;51.068;7.026;2023-07-29T05:08:57;4.20;;;2.57;;
59271;SDS011;45043;51.068;7.026;2023-07-29T05:11:57;3.17;;;2.63;;
59271;SDS011;45043;51.068;7.026;2023-07-29T05:14:58;4.13;;;2.40;;
59271;SDS011;45043;51.068;7.026;2023-07-29T05:17:58;2.60;;;2.40;;
59271;SDS011;45043;51.068;7.026;2023-07-29T05:20:59;3.57;;;2.10;;
59271;SDS011;45043;51.068;7.026;2023-07-29T05:24:00;2.60;;;2.40;;
59271;SDS011;45043;51.068;7.026;2023-07-29T05:27:01;4.33;;;2.63;;
59271;SDS011;45043;51.068;7.026;2023-07-29T05:30:01;3.53;;;2.40;;
59271;SDS011;45043;51.068;7.026;2023-07-29T05:33:03;2.63;;;2.20;;
59271;SDS011;45043;51.068;7.026;2023-07-29T05:36:05;7.03;;;2.23;;
59271;SDS011;45043;51.068;7.026;2023-07-29T05:39:05;4.20;;;2.57;;
59271;SDS011;45043;51.068;7.026;2023-07-29T05:42:07;5.27;;;2.70;;
59271;SDS011;45043;51.068;7.026;2023-07-29T05:45:08;3.33;;;2.80;;
59271;SDS011;45043;51.068;7.026;2023-07-29T05:48:09;5.27;;;2.70;;
59271;SDS011;45043;51.068;7.026;2023-07-29T05:51:09;3.43;;;2.73;;
59271;SDS011;45043;51.068;7.026;2023-07-29T05:54:10;4.23;;;2.63;;
59271;SDS011;45043;51.068;7.026;2023-07-29T05:57:11;2.93;;;2.40;;
59271;SDS011;45043;51.068;7.026;2023-07-29T06:00:12;3.07;;;2.83;;
59271;SDS011;45043;51.068;7.026;2023-07-29T06:03:13;3.80;;;2.57;;
59271;SDS011;45043;51.068;7.026;2023-07-29T06:06:14;3.03;;;2.73;;
59271;SDS011;45043;51.068;7.026;2023-07-29T06:09:14;4.83;;;2.33;;
59271;SDS011;45043;51.068;7.026;2023-07-29T06:12:15;4.30;;;2.50;;
59271;SDS011;45043;51.068;7.026;2023-07-29T06:15:15;2.90;;;2.57;;
59271;SDS011;45043;51.068;7.026;2023-07-29T06:18:16;2.73;;;2.47;;
59271;SDS011;45043;51.068;7.026;2023-07-29T06:21:17;3.07;;;2.47;;
59271;SDS011;45043;51.068;7.026;2023-07-29T06:24:19;5.83;;;2.50;;
59271;SDS011;45043;51.068;7.026;2023-07-29T06:27:20;3.90;;;2.40;;
59271;SDS011;45043;51.068;7.026;2023-07-29T06:30:20;2.60;;;2.20;;
59271;SDS011;45043;51.068;7.026;2023-07-29T06:33:21;4.13;;;2.50;;
59271;SDS011;45043;51.068;7.026;2023-07-29T06:36:22;4.13;;;2.57;;
59271;SDS011;45043;51.068;7.026;2023-07-29T06:39:22;5.07;;;2.40;;
59271;SDS011;45043;51.068;7.026;2023-07-29T06:42:23;7.00;;;2.73;;
59271;SDS011;45043;51.068;7.026;2023-07-29T06:45:23;2.60;;;2.40;;
59271;SDS011;45043;51.068;7.026;2023-07-29T06:48:23;2.40;;;2.20;;
59271;SDS011;45043;51.068;7.026;2023-07-29T06:51:24;2.30;;;2.20;;
59271;SDS011;45043;51.068;7.026;2023-07-29T06:54:24;2.87;;;2.47;;
59271;SDS011;45043;51.068;7.026;2023-07-29T06:57:26;4.67;;;3.23;;
59271;SDS011;45043;51.068;7.026;2023-07-29T07:00:26;4.20;;;2.87;;
59271;SDS011;45043;51.068;7.026;2023-07-29T07:03:27;4.97;;;3.20;;
59271;SDS011;45043;51.068;7.026;2023-07-29T07:06:27;3.00;;;2.80;;
59271;SDS011;45043;51.068;7.026;2023-07-29T07:09:28;4.27;;;2.93;;
59271;SDS011;45043;51.068;7.026;2023-07-29T07:12:28;3.83;;;3.40;;
59271;SDS011;45043;51.068;7.026;2023-07-29T07:15:32;4.03;;;2.87;;
59271;SDS011;45043;51.068;7.026;2023-07-29T07:18:33;3.73;;;2.73;;
59271;SDS011;45043;51.068;7.026;2023-07-29T07:21:34;3.07;;;2.87;;
59271;SDS011;45043;51.068;7.026;2023-07-29T07:24:35;3.47;;;2.70;;
59271;SDS011;45043;51.068;7.026;2023-07-29T07:27:36;4.73;;;2.50;;
59271;SDS011;45043;51.068;7.026;2023-07-29T07:30:40;3.00;;;2.50;;
59271;SDS011;45043;51.068;7.026;2023-07-29T07:33:41;3.20;;;2.87;;
59271;SDS011;45043;51.068;7.026;2023-07-29T07:36:42;2.30;;;2.10;;
59271;SDS011;45043;51.068;7.026;2023-07-29T07:39:42;2.27;;;2.00;;
59271;SDS011;45043;51.068;7.026;2023-07-29T07:42:43;2.40;;;2.03;;
59271;SDS011;45043;51.068;7.026;2023-07-29T07:45:44;2.67;;;2.10;;
59271;SDS011;45043;51.068;7.026;2023-07-29T07:48:44;2.40;;;2.20;;
59271;SDS011;45043;51.068;7.026;2023-07-29T07:51:44;2.83;;;2.07;;
59271;SDS011;45043;51.068;7.026;2023-07-29T07:54:45;4.40;;;2.10;;
59271;SDS011;45043;51.068;7.026;2023-07-29T07:57:46;1.87;;;1.77;;
59271;SDS011;45043;51.068;7.026;2023-07-29T08:00:47;2.83;;;2.03;;
59271;SDS011;45043;51.068;7.026;2023-07-29T08:03:47;3.20;;;2.10;;
59271;SDS011;45043;51.068;7.026;2023-07-29T08:06:48;2.63;;;2.40;;
59271;SDS011;45043;51.068;7.026;2023-07-29T08:09:48;2.27;;;2.07;;
59271;SDS011;45043;51.068;7.026;2023-07-29T08:13:01;2.73;;;1.93;;
59271;SDS011;45043;51.068;7.026;2023-07-29T08:16:02;2.20;;;2.00;;
59271;SDS011;45043;51.068;7.026;2023-07-29T08:19:03;8.27;;;7.47;;
59271;SDS011;45043;51.068;7.026;2023-07-29T08:22:04;4.17;;;3.77;;
59271;SDS011;45043;51.068;7.026;2023-07-29T08:25:04;5.03;;;4.27;;
59271;SDS011;45043;51.068;7.026;2023-07-29T08:28:05;4.80;;;2.20;;
59271;SDS011;45043;51.068;7.026;2023-07-29T08:31:06;3.80;;;2.00;;
59271;SDS011;45043;51.068;7.026;2023-07-29T08:34:08;2.90;;;2.30;;
59271;SDS011;45043;51.068;7.026;2023-07-29T08:37:08;2.57;;;2.10;;
59271;SDS011;45043;51.068;7.026;2023-07-29T08:40:09;2.97;;;2.10;;
59271;SDS011;45043;51.068;7.026;2023-07-29T08:43:10;2.07;;;1.97;;
59271;SDS011;45043;51.068;7.026;2023-07-29T08:46:14;2.87;;;2.27;;
59271;SDS011;45043;51.068;7.026;2023-07-29T08:49:17;3.70;;;2.20;;
59271;SDS011;45043;51.068;7.026;2023-07-29T08:52:19;2.30;;;2.00;;
59271;SDS011;45043;51.068;7.026;2023-07-29T08:55:20;2.17;;;1.60;;
59271;SDS011;45043;51.068;7.026;2023-07-29T08:58:21;2.23;;;1.80;;
59271;SDS011;45043;51.068;7.026;2023-07-29T09:01:25;2.90;;;2.23;;
59271;SDS011;45043;51.068;7.026;2023-07-29T09:04:26;1.93;;;1.83;;
59271;SDS011;45043;51.068;7.026;2023-07-29T09:07:26;2.63;;;2.00;;
59271;SDS011;45043;51.068;7.026;2023-07-29T09:10:28;1.73;;;1.63;;
59271;SDS011;45043;51.068;7.026;2023-07-29T09:13:29;1.93;;;1.83;;
59271;SDS011;45043;51.068;7.026;2023-07-29T09:16:29;2.37;;;1.70;;
59271;SDS011;45043;51.068;7.026;2023-07-29T09:19:32;1.80;;;1.50;;
59271;SDS011;45043;51.068;7.026;2023-07-29T09:22:33;1.50;;;1.40;;
59271;SDS011;45043;51.068;7.026;2023-07-29T09:25:34;2.97;;;1.93;;
59271;SDS011;45043;51.068;7.026;2023-07-29T09:28:35;2.70;;;1.70;;
59271;SDS011;45043;51.068;7.026;2023-07-29T09:31:38;3.00;;;1.70;;
59271;SDS011;45043;51.068;7.026;2023-07-29T09:34:41;2.93;;;2.10;;
59271;SDS011;45043;51.068;7.026;2023-07-29T09:37:43;2.30;;;2.10;;
59271;SDS011;45043;51.068;7.026;2023-07-29T09:40:43;3.03;;;2.00;;
59271;SDS011;45043;51.068;7.026;2023-07-29T09:43:45;2.13;;;1.93;;
59271;SDS011;45043;51.068;7.026;2023-07-29T09:46:46;2.10;;;1.90;;
59271;SDS011;45043;51.068;7.026;2023-07-29T09:49:47;1.90;;;1.80;;
59271;SDS011;45043;51.068;7.026;2023-07-29T09:52:48;3.17;;;1.90;;
59271;SDS011;45043;51.068;7.026;2023-07-29T09:55:51;2.20;;;2.00;;
59271;SDS011;45043;51.068;7.026;2023-07-29T09:58:55;1.70;;;1.60;;
59271;SDS011;45043;51.068;7.026;2023-07-29T10:01:57;1.90;;;1.70;;
59271;SDS011;45043;51.068;7.026;2023-07-29T10:04:57;2.43;;;1.80;;
59271;SDS011;45043;51.068;7.026;2023-07-29T10:07:59;3.23;;;2.03;;
59271;SDS011;45043;51.068;7.026;2023-07-29T10:11:01;2.10;;;2.00;;
59271;SDS011;45043;51.068;7.026;2023-07-29T10:14:01;2.67;;;2.30;;
59271;SDS011;45043;51.068;7.026;2023-07-29T10:17:02;2.30;;;2.20;;
59271;SDS011;45043;51.068;7.026;2023-07-29T10:20:03;6.53;;;2.00;;
59271;SDS011;45043;51.068;7.026;2023-07-29T10:23:06;2.80;;;2.27;;
59271;SDS011;45043;51.068;7.026;2023-07-29T10:26:09;2.37;;;2.00;;
59271;SDS011;45043;51.068;7.026;2023-07-29T10:29:10;3.10;;;2.10;;
59271;SDS011;45043;51.068;7.026;2023-07-29T10:32:13;2.93;;;2.00;;
59271;SDS011;45043;51.068;7.026;2023-07-29T10:35:15;1.83;;;1.73;;
59271;SDS011;45043;51.068;7.026;2023-07-29T10:38:16;2.50;;;1.90;;
59271;SDS011;45043;51.068;7.026;2023-07-29T10:41:17;2.37;;;1.90;;
59271;SDS011;45043;51.068;7.026;2023-07-29T10:44:45;5.40;;;2.60;;
59271;SDS011;45043;51.068;7.026;2023-07-29T10:47:46;2.73;;;1.93;;
59271;SDS011;45043;51.068;7.026;2023-07-29T10:50:48;2.30;;;2.10;;
59271;SDS011;45043;51.068;7.026;2023-07-29T10:53:48;2.33;;;2.10;;
59271;SDS011;45043;51.068;7.026;2023-07-29T10:56:53;2.33;;;1.97;;
59271;SDS011;45043;51.068;7.026;2023-07-29T10:59:58;2.27;;;2.03;;
59271;SDS011;45043;51.068;7.026;2023-07-29T11:03:00;3.47;;;2.43;;
59271;SDS011;45043;51.068;7.026;2023-07-29T11:06:04;3.90;;;2.03;;
59271;SDS011;45043;51.068;7.026;2023-07-29T11:09:38;2.93;;;2.57;;
59271;SDS011;45043;51.068;7.026;2023-07-29T11:12:52;2.07;;;1.93;;
59271;SDS011;45043;51.068;7.026;2023-07-29T11:15:54;2.40;;;2.20;;
59271;SDS011;45043;51.068;7.026;2023-07-29T11:18:56;2.20;;;2.00;;
59271;SDS011;45043;51.068;7.026;2023-07-29T11:22:00;2.30;;;2.10;;
59271;SDS011;45043;51.068;7.026;2023-07-29T11:25:00;2.50;;;2.30;;
59271;SDS011;45043;51.068;7.026;2023-07-29T11:28:01;1.87;;;1.77;;
59271;SDS011;45043;51.068;7.026;2023-07-29T11:31:02;2.20;;;2.00;;
59271;SDS011;45043;51.068;7.026;2023-07-29T11:34:06;2.30;;;2.10;;
59271;SDS011;45043;51.068;7.026;2023-07-29T11:37:09;1.90;;;1.80;;
59271;SDS011;45043;51.068;7.026;2023-07-29T11:40:15;1.97;;;1.87;;
59271;SDS011;45043;51.068;7.026;2023-07-29T11:43:17;2.10;;;2.00;;
59271;SDS011;45043;51.068;7.026;2023-07-29T11:46:20;2.40;;;2.20;;
59271;SDS011;45043;51.068;7.026;2023-07-29T11:49:22;2.30;;;2.10;;
59271;SDS011;45043;51.068;7.026;2023-07-29T11:52:22;2.30;;;2.10;;
59271;SDS011;45043;51.068;7.026;2023-07-29T11:55:24;2.33;;;2.13;;
59271;SDS011;45043;51.068;7.026;2023-07-29T11:58:24;2.87;;;2.37;;
59271;SDS011;45043;51.068;7.026;2023-07-29T12:01:27;3.60;;;2.20;;
59271;SDS011;45043;51.068;7.026;2023-07-29T12:04:28;4.97;;;2.43;;
59271;SDS011;45043;51.068;7.026;2023-07-29T12:07:30;3.30;;;2.30;;
59271;SDS011;45043;51.068;7.026;2023-07-29T12:10:31;4.60;;;2.40;;
59271;SDS011;45043;51.068;7.026;2023-07-29T12:13:32;2.33;;;2.07;;
59271;SDS011;45043;51.068;7.026;2023-07-29T12:16:39;2.63;;;2.23;;
59271;SDS011;45043;51.068;7.026;2023-07-29T12:19:41;2.20;;;2.00;;
59271;SDS011;45043;51.068;7.026;2023-07-29T12:22:43;3.07;;;2.37;;
59271;SDS011;45043;51.068;7.026;2023-07-29T12:25:43;3.33;;;2.40;;
59271;SDS011;45043;51.068;7.026;2023-07-29T12:28:46;2.30;;;2.10;;
59271;SDS011;45043;51.068;7.026;2023-07-29T12:31:48;3.23;;;2.10;;
59271;SDS011;45043;51.068;7.026;2023-07-29T12:34:49;3.20;;;2.40;;
59271;SDS011;45043;51.068;7.026;2023-07-29T12:37:59;3.17;;;2.57;;
59271;SDS011;45043;51.068;7.026;2023-07-29T12:41:00;2.83;;;2.30;;
59271;SDS011;45043;51.068;7.026;2023-07-29T12:44:01;2.60;;;2.40;;
59271;SDS011;45043;51.068;7.026;2023-07-29T12:47:02;2.03;;;1.93;;
59271;SDS011;45043;51.068;7.026;2023-07-29T12:50:03;3.43;;;2.37;;
59271;SDS011;45043;51.068;7.026;2023-07-29T12:53:04;2.43;;;2.23;;
59271;SDS011;45043;51.068;7.026;2023-07-29T12:56:06;3.00;;;2.03;;
59271;SDS011;45043;51.068;7.026;2023-07-29T12:59:07;2.27;;;2.00;;
59271;SDS011;45043;51.068;7.026;2023-07-29T13:02:08;2.20;;;1.90;;
59271;SDS011;45043;51.068;7.026;2023-07-29T13:05:09;2.50;;;2.30;;
59271;SDS011;45043;51.068;7.026;2023-07-29T13:08:13;2.47;;;2.13;;
59271;SDS011;45043;51.068;7.026;2023-07-29T13:11:14;2.40;;;2.10;;
59271;SDS011;45043;51.068;7.026;2023-07-29T13:14:16;2.40;;;2.10;;
59271;SDS011;45043;51.068;7.026;2023-07-29T13:17:16;2.67;;;2.47;;
59271;SDS011;45043;51.068;7.026;2023-07-29T13:20:17;2.07;;;1.97;;
59271;SDS011;45043;51.068;7.026;2023-07-29T13:23:18;2.50;;;2.30;;
59271;SDS011;45043;51.068;7.026;2023-07-29T13:26:19;2.07;;;1.97;;
59271;SDS011;45043;51.068;7.026;2023-07-29T13:29:19;2.80;;;2.20;;
59271;SDS011;45043;51.068;7.026;2023-07-29T13:32:19;2.37;;;2.17;;
59271;SDS011;45043;51.068;7.026;2023-07-29T13:35:20;2.13;;;2.00;;
59271;SDS011;45043;51.068;7.026;2023-07-29T13:38:20;2.43;;;2.17;;
59271;SDS011;45043;51.068;7.026;2023-07-29T13:41:21;2.33;;;2.13;;
59271;SDS011;45043;51.068;7.026;2023-07-29T13:44:21;2.20;;;2.10;;
59271;SDS011;45043;51.068;7.026;2023-07-29T13:47:22;2.87;;;2.20;;
59271;SDS011;45043;51.068;7.026;2023-07-29T13:50:22;2.93;;;2.17;;
59271;SDS011;45043;51.068;7.026;2023-07-29T13:53:23;2.40;;;2.20;;
59271;SDS011;45043;51.068;7.026;2023-07-29T13:56:23;2.83;;;2.40;;
59271;SDS011;45043;51.068;7.026;2023-07-29T13:59:24;3.43;;;2.50;;
59271;SDS011;45043;51.068;7.026;2023-07-29T14:02:24;2.30;;;2.10;;
59271;SDS011;45043;51.068;7.026;2023-07-29T14:05:28;2.83;;;2.30;;
59271;SDS011;45043;51.068;7.026;2023-07-29T14:08:29;2.93;;;2.63;;
59271;SDS011;45043;51.068;7.026;2023-07-29T14:11:29;3.17;;;2.50;;
59271;SDS011;45043;51.068;7.026;2023-07-29T14:14:30;2.60;;;2.40;;
59271;SDS011;45043;51.068;7.026;2023-07-29T14:17:31;2.43;;;2.23;;
59271;SDS011;45043;51.068;7.026;2023-07-29T14:20:32;2.70;;;2.50;;
59271;SDS011;45043;51.068;7.026;2023-07-29T14:23:32;2.93;;;2.30;;
59271;SDS011;45043;51.068;7.026;2023-07-29T14:26:33;2.73;;;2.53;;
59271;SDS011;45043;51.068;7.026;2023-07-29T14:29:33;3.47;;;2.83;;
59271;SDS011;45043;51.068;7.026;2023-07-29T14:32:33;3.23;;;2.53;;
59271;SDS011;45043;51.068;7.026;2023-07-29T14:35:34;2.97;;;2.57;;
59271;SDS011;45043;51.068;7.026;2023-07-29T14:38:35;2.70;;;2.50;;
59271;SDS011;45043;51.068;7.026;2023-07-29T14:41:37;2.10;;;2.00;;
59271;SDS011;45043;51.068;7.026;2023-07-29T14:44:37;2.27;;;2.07;;
59271;SDS011;45043;51.068;7.026;2023-07-29T14:47:39;2.47;;;2.37;;
59271;SDS011;45043;51.068;7.026;2023-07-29T14:50:39;2.73;;;2.43;;
59271;SDS011;45043;51.068;7.026;2023-07-29T14:53:40;2.40;;;2.20;;
59271;SDS011;45043;51.068;7.026;2023-07-29T14:56:41;2.97;;;2.60;;
59271;SDS011;45043;51.068;7.026;2023-07-29T14:59:42;2.60;;;2.40;;
59271;SDS011;45043;51.068;7.026;2023-07-29T15:02:42;3.03;;;2.47;;
59271;SDS011;45043;51.068;7.026;2023-07-29T15:05:43;3.17;;;2.60;;
59271;SDS011;45043;51.068;7.026;2023-07-29T15:08:43;2.70;;;2.50;;
59271;SDS011;45043;51.068;7.026;2023-07-29T15:11:44;2.40;;;2.20;;
59271;SDS011;45043;51.068;7.026;2023-07-29T15:14:44;2.93;;;2.50;;
59271;SDS011;45043;51.068;7.026;2023-07-29T15:17:47;2.50;;;2.30;;
59271;SDS011;45043;51.068;7.026;2023-07-29T15:20:48;2.40;;;2.20;;
59271;SDS011;45043;51.068;7.026;2023-07-29T15:23:49;3.40;;;2.40;;
59271;SDS011;45043;51.068;7.026;2023-07-29T15:26:49;3.53;;;2.67;;
59271;SDS011;45043;51.068;7.026;2023-07-29T15:29:50;3.93;;;2.67;;
59271;SDS011;45043;51.068;7.026;2023-07-29T15:32:51;3.70;;;2.40;;
59271;SDS011;45043;51.068;7.026;2023-07-29T15:35:51;2.00;;;1.90;;
59271;SDS011;45043;51.068;7.026;2023-07-29T15:38:52;2.70;;;2.50;;
59271;SDS011;45043;51.068;7.026;2023-07-29T15:41:53;2.53;;;2.33;;
59271;SDS011;45043;51.068;7.026;2023-07-29T15:44:53;2.63;;;2.40;;
59271;SDS011;45043;51.068;7.026;2023-07-29T15:47:54;2.70;;;2.50;;
59271;SDS011;45043;51.068;7.026;2023-07-29T15:50:54;2.40;;;2.20;;
59271;SDS011;45043;51.068;7.026;2023-07-29T15:53:55;2.60;;;2.40;;
59271;SDS011;45043;51.068;7.026;2023-07-29T15:56:55;3.50;;;2.37;;
59271;SDS011;45043;51.068;7.026;2023-07-29T15:59:55;5.53;;;2.60;;
59271;SDS011;45043;51.068;7.026;2023-07-29T16:02:56;2.33;;;2.13;;
59271;SDS011;45043;51.068;7.026;2023-07-29T16:05:56;2.40;;;2.20;;
59271;SDS011;45043;51.068;7.026;2023-07-29T16:08:58;2.90;;;2.70;;
59271;SDS011;45043;51.068;7.026;2023-07-29T16:11:59;2.40;;;2.20;;
59271;SDS011;45043;51.068;7.026;2023-07-29T16:15:02;2.30;;;2.20;;
59271;SDS011;45043;51.068;7.026;2023-07-29T16:18:03;3.07;;;1.90;;
59271;SDS011;45043;51.068;7.026;2023-07-29T16:21:03;2.70;;;2.40;;
59271;SDS011;45043;51.068;7.026;2023-07-29T16:24:04;2.60;;;2.40;;
59271;SDS011;45043;51.068;7.026;2023-07-29T16:27:05;2.50;;;2.30;;
59271;SDS011;45043;51.068;7.026;2023-07-29T16:30:05;2.93;;;2.50;;
59271;SDS011;45043;51.068;7.026;2023-07-29T16:33:06;2.90;;;2.60;;
59271;SDS011;45043;51.068;7.026;2023-07-29T16:36:07;2.63;;;2.43;;
59271;SDS011;45043;51.068;7.026;2023-07-29T16:39:07;2.70;;;2.50;;
59271;SDS011;45043;51.068;7.026;2023-07-29T16:42:07;2.93;;;2.47;;
59271;SDS011;45043;51.068;7.026;2023-07-29T16:45:08;3.83;;;3.53;;
59271;SDS011;45043;51.068;7.026;2023-07-29T16:48:10;3.20;;;3.00;;
59271;SDS011;45043;51.068;7.026;2023-07-29T16:51:10;2.80;;;2.60;;
59271;SDS011;45043;51.068;7.026;2023-07-29T16:54:11;2.63;;;2.43;;
59271;SDS011;45043;51.068;7.026;2023-07-29T16:57:14;2.27;;;2.13;;
59271;SDS011;45043;51.068;7.026;2023-07-29T17:00:14;3.50;;;2.63;;
59271;SDS011;45043;51.068;7.026;2023-07-29T17:03:15;3.37;;;3.07;;
59271;SDS011;45043;51.068;7.026;2023-07-29T17:06:18;2.13;;;2.03;;
59271;SDS011;45043;51.068;7.026;2023-07-29T17:09:18;3.23;;;2.47;;
59271;SDS011;45043;51.068;7.026;2023-07-29T17:12:19;3.80;;;2.57;;
59271;SDS011;45043;51.068;7.026;2023-07-29T17:15:19;3.60;;;3.00;;
59271;SDS011;45043;51.068;7.026;2023-07-29T17:18:20;2.80;;;2.60;;
59271;SDS011;45043;51.068;7.026;2023-07-29T17:21:20;3.37;;;3.07;;
59271;SDS011;45043;51.068;7.026;2023-07-29T17:24:21;2.83;;;2.63;;
59271;SDS011;45043;51.068;7.026;2023-07-29T17:27:21;2.50;;;2.30;;
59271;SDS011;45043;51.068;7.026;2023-07-29T17:30:22;2.20;;;1.90;;
59271;SDS011;45043;51.068;7.026;2023-07-29T17:33:25;3.00;;;2.33;;
59271;SDS011;45043;51.068;7.026;2023-07-29T17:36:25;2.07;;;1.97;;
59271;SDS011;45043;51.068;7.026;2023-07-29T17:39:26;3.20;;;2.47;;
59271;SDS011;45043;51.068;7.026;2023-07-29T17:42:26;2.53;;;2.33;;
59271;SDS011;45043;51.068;7.026;2023-07-29T17:45:27;4.23;;;2.60;;
59271;SDS011;45043;51.068;7.026;2023-07-29T17:48:27;4.43;;;2.20;;
59271;SDS011;45043;51.068;7.026;2023-07-29T17:51:28;4.13;;;2.80;;
59271;SDS011;45043;51.068;7.026;2023-07-29T17:54:29;3.13;;;2.83;;
59271;SDS011;45043;51.068;7.026;2023-07-29T17:57:29;4.40;;;2.93;;
59271;SDS011;45043;51.068;7.026;2023-07-29T18:00:30;3.07;;;2.60;;
59271;SDS011;45043;51.068;7.026;2023-07-29T18:03:31;3.63;;;3.07;;
59271;SDS011;45043;51.068;7.026;2023-07-29T18:06:31;3.30;;;2.60;;
59271;SDS011;45043;51.068;7.026;2023-07-29T18:09:32;3.07;;;2.77;;
59271;SDS011;45043;51.068;7.026;2023-07-29T18:12:32;2.57;;;2.37;;
59271;SDS011;45043;51.068;7.026;2023-07-29T18:15:33;3.07;;;2.70;;
59271;SDS011;45043;51.068;7.026;2023-07-29T18:18:33;2.67;;;2.47;;
59271;SDS011;45043;51.068;7.026;2023-07-29T18:21:34;4.23;;;3.10;;